Time;durP1;ratioP1;P1;durP2;ratioP2;P2;SDS_P1;SDS_P2;PMS_P1;PMS_P2;Temp;Humidity;BMP_temperature;BMP_pressure;BME280_temperature;BME280_humidity;BME280_pressure;Samples;Min_cycle;Max_cycle;Signal;HPM_P1;HPM_P2
2024/04/26 00:01:45;;;;;;;48.30;33.30;;;;;;;2.99;100.00;98298.72;109580;1251;59926;-77
2024/04/26 00:04:11;;;;;;;50.50;34.50;;;;;;;2.93;100.00;98300.94;109520;1251;59829;-77
2024/04/26 00:06:42;;;;;;;45.30;32.10;;;;;;;2.87;100.00;98301.08;109585;1251;59744;-76
2024/04/26 00:09:08;;;;;;;47.40;32.70;;;;;;;2.81;100.00;98297.61;109548;1251;62996;-77
2024/04/26 00:11:39;;;;;;;41.50;30.60;;;;;;;2.75;100.00;98301.23;109341;1251;60381;-76
2024/04/26 00:14:05;;;;;;;41.80;32.00;;;;;;;2.68;100.00;98301.58;109548;1253;60107;-76
2024/04/26 00:16:41;;;;;;;45.50;33.50;;;;;;;2.61;100.00;98296.98;109244;1251;65544;-76
2024/04/26 00:19:08;;;;;;;49.00;33.50;;;;;;;2.57;100.00;98296.80;109596;1251;60065;-76
2024/04/26 00:21:42;;;;;;;52.40;35.90;;;;;;;2.54;100.00;98300.98;109535;1251;59862;-77
2024/04/26 00:24:08;;;;;;;45.50;34.90;;;;;;;2.50;100.00;98303.48;109551;1251;59899;-77
2024/04/26 00:26:34;;;;;;;47.90;36.40;;;;;;;2.47;100.00;98301.31;109363;1251;59986;-76
2024/04/26 00:29:02;;;;;;;50.40;36.40;;;;;;;2.45;100.00;98303.70;109536;1251;60049;-76
2024/04/26 00:31:28;;;;;;;49.40;37.90;;;;;;;2.40;100.00;98305.14;109580;1251;59768;-76
2024/04/26 00:33:55;;;;;;;47.90;37.30;;;;;;;2.33;100.00;98310.17;109521;1251;59835;-76
2024/04/26 00:36:21;;;;;;;47.50;36.00;;;;;;;2.26;100.00;98310.31;109541;1251;59753;-77
2024/04/26 00:38:48;;;;;;;50.30;36.50;;;;;;;2.21;100.00;98308.79;108821;1251;1002428;-75
2024/04/26 00:41:14;;;;;;;54.60;38.90;;;;;;;2.15;100.00;98309.90;109579;1250;59762;-77
2024/04/26 00:43:40;;;;;;;57.70;39.70;;;;;;;2.10;100.00;98311.35;109547;1251;59737;-76
2024/04/26 00:46:09;;;;;;;55.70;41.10;;;;;;;2.05;100.00;98311.60;109565;1251;60089;-77
2024/04/26 00:48:35;;;;;;;54.60;41.60;;;;;;;1.97;100.00;98315.40;109583;1251;59840;-77
2024/04/26 00:51:02;;;;;;;54.60;41.40;;;;;;;1.89;100.00;98315.40;109548;1251;59886;-76
2024/04/26 00:53:29;;;;;;;58.70;42.40;;;;;;;1.84;100.00;98314.60;109545;1251;67002;-77
2024/04/26 00:55:55;;;;;;;66.30;45.80;;;;;;;1.80;100.00;98317.40;109586;1250;60085;-76
2024/04/26 00:58:22;;;;;;;60.30;43.10;;;;;;;1.79;100.00;98319.21;109569;1251;59869;-76
2024/04/26 01:00:49;;;;;;;62.10;43.40;;;;;;;1.77;100.00;98320.50;109554;1251;60089;-76
2024/04/26 01:03:16;;;;;;;61.40;42.40;;;;;;;1.76;100.00;98322.09;109407;1251;59801;-76
2024/04/26 01:05:42;;;;;;;58.80;42.60;;;;;;;1.76;100.00;98322.98;109605;1251;66552;-76
2024/04/26 01:08:09;;;;;;;59.80;44.50;;;;;;;1.76;100.00;98326.65;109508;1250;59806;-76
2024/04/26 01:10:35;;;;;;;59.90;42.80;;;;;;;1.77;100.00;98325.41;109519;1251;60529;-76
2024/04/26 01:13:06;;;;;;;54.70;42.10;;;;;;;1.78;100.00;98322.73;109592;1251;60042;-76
2024/04/26 01:15:32;;;;;;;52.20;41.70;;;;;;;1.82;100.00;98325.71;109371;1251;59801;-76
2024/04/26 01:17:59;;;;;;;56.00;41.20;;;;;;;1.84;100.00;98329.15;109575;1251;60411;-76
2024/04/26 01:20:26;;;;;;;58.00;43.10;;;;;;;1.81;100.00;98332.05;109581;1250;60105;-76
2024/04/26 01:22:54;;;;;;;58.90;44.60;;;;;;;1.76;100.00;98332.60;109558;1251;62768;-77
2024/04/26 01:25:20;;;;;;;50.30;40.00;;;;;;;1.71;100.00;98337.71;109543;1251;59762;-76
2024/04/26 01:27:47;;;;;;;48.50;39.60;;;;;;;1.66;100.00;98337.23;109604;1251;59957;-76
2024/04/26 01:30:16;;;;;;;54.20;40.50;;;;;;;1.62;100.00;98339.86;109572;1251;59828;-76
2024/04/26 01:32:43;;;;;;;51.10;40.20;;;;;;;1.58;100.00;98339.15;109624;1251;59961;-76
2024/04/26 01:35:09;;;;;;;53.60;40.40;;;;;;;1.53;100.00;98345.10;109559;1251;59833;-76
2024/04/26 01:37:35;;;;;;;55.10;40.90;;;;;;;1.48;100.00;98347.58;109532;1251;60249;-76
2024/04/26 01:40:02;;;;;;;52.00;38.90;;;;;;;1.43;100.00;98349.20;109553;1251;59691;-76
2024/04/26 01:42:29;;;;;;;51.70;39.70;;;;;;;1.39;100.00;98347.77;109569;1251;59819;-76
2024/04/26 01:44:55;;;;;;;53.40;40.80;;;;;;;1.39;100.00;98349.39;109568;1250;59742;-75
2024/04/26 01:47:22;;;;;;;53.20;40.40;;;;;;;1.38;100.00;98350.29;109491;1251;59837;-76
2024/04/26 01:49:48;;;;;;;55.00;43.40;;;;;;;1.39;100.00;98347.96;109589;1251;59767;-76
2024/04/26 01:52:14;;;;;;;49.40;39.90;;;;;;;1.40;100.00;98355.98;109555;1251;59873;-76
2024/04/26 01:54:41;;;;;;;51.90;41.90;;;;;;;1.40;100.00;98353.35;109562;1250;60181;-76
2024/04/26 01:57:07;;;;;;;55.10;42.60;;;;;;;1.39;100.00;98353.38;109578;1251;59847;-76
2024/04/26 01:59:34;;;;;;;52.30;39.70;;;;;;;1.38;100.00;98351.67;109561;1251;60840;-76
2024/04/26 02:02:00;;;;;;;53.50;40.50;;;;;;;1.34;100.00;98354.80;109510;1251;60094;-76
2024/04/26 02:04:27;;;;;;;56.90;41.80;;;;;;;1.28;100.00;98360.83;109558;1251;59811;-76
2024/04/26 02:06:53;;;;;;;53.50;41.50;;;;;;;1.23;100.00;98362.61;109572;1250;59796;-76
2024/04/26 02:09:19;;;;;;;50.90;41.20;;;;;;;1.19;100.00;98365.04;109524;1250;59813;-76
2024/04/26 02:11:46;;;;;;;52.10;41.60;;;;;;;1.13;100.00;98362.63;109562;1251;59879;-76
2024/04/26 02:14:12;;;;;;;51.10;40.00;;;;;;;1.10;100.00;98366.08;109544;1251;59777;-76
2024/04/26 02:16:38;;;;;;;51.60;40.90;;;;;;;1.07;100.00;98368.14;109564;1251;59967;-76
2024/04/26 02:19:05;;;;;;;54.30;42.40;;;;;;;1.03;100.00;98368.26;109549;1251;60203;-76
2024/04/26 02:21:31;;;;;;;53.00;40.30;;;;;;;1.00;100.00;98371.02;109600;1251;60246;-76
2024/04/26 02:23:57;;;;;;;50.20;39.30;;;;;;;0.96;100.00;98372.56;109505;1251;60150;-76
2024/04/26 02:26:23;;;;;;;51.40;40.30;;;;;;;0.92;100.00;98372.02;109162;1251;59880;-77
2024/04/26 02:28:50;;;;;;;50.90;39.60;;;;;;;0.90;100.00;98376.99;109587;1251;59867;-76
2024/04/26 02:31:17;;;;;;;51.60;39.90;;;;;;;0.87;100.00;98376.05;109509;1251;60256;-76
2024/04/26 02:33:43;;;;;;;51.50;39.30;;;;;;;0.84;100.00;98378.98;109530;1251;59835;-76
2024/04/26 02:36:09;;;;;;;49.30;37.50;;;;;;;0.79;100.00;98377.40;109537;1251;60252;-76
2024/04/26 02:38:40;;;;;;;49.40;39.20;;;;;;;0.75;100.00;98377.89;109287;1251;59820;-76
2024/04/26 02:41:09;;;;;;;49.50;38.70;;;;;;;0.72;100.00;98378.52;109542;1251;59695;-76
2024/04/26 02:43:35;;;;;;;53.20;39.50;;;;;;;0.68;100.00;98376.74;109537;1251;66633;-77
2024/04/26 02:46:01;;;;;;;52.80;40.50;;;;;;;0.64;100.00;98375.17;109532;1250;59837;-77
2024/04/26 02:48:28;;;;;;;53.10;40.70;;;;;;;0.60;100.00;98373.56;109575;1251;60737;-76
2024/04/26 02:50:54;;;;;;;49.50;40.70;;;;;;;0.54;100.00;98376.92;109518;1251;59814;-76
2024/04/26 02:53:20;;;;;;;59.20;41.00;;;;;;;0.51;100.00;98376.67;109517;1251;59872;-77
2024/04/26 02:55:47;;;;;;;51.50;40.30;;;;;;;0.49;100.00;98376.75;109563;1251;60418;-76
2024/04/26 02:58:13;;;;;;;54.50;40.80;;;;;;;0.46;100.00;98377.40;109538;1251;60284;-77
2024/04/26 03:00:39;;;;;;;52.20;40.80;;;;;;;0.43;100.00;98378.17;109526;1251;59937;-77
2024/04/26 03:03:05;;;;;;;53.10;40.70;;;;;;;0.42;100.00;98375.60;109533;1251;59839;-76
2024/04/26 03:05:32;;;;;;;52.50;40.80;;;;;;;0.41;100.00;98376.86;109589;1251;59792;-76
2024/04/26 03:07:58;;;;;;;52.80;40.80;;;;;;;0.40;100.00;98383.73;109558;1251;59823;-75
2024/04/26 03:10:24;;;;;;;53.40;39.30;;;;;;;0.39;100.00;98386.52;109539;1251;59810;-75
2024/04/26 03:12:51;;;;;;;50.50;40.40;;;;;;;0.39;100.00;98385.16;109569;1251;59890;-76
2024/04/26 03:15:17;;;;;;;53.30;40.40;;;;;;;0.39;100.00;98388.82;109516;1251;60238;-76
2024/04/26 03:17:43;;;;;;;52.70;41.20;;;;;;;0.41;100.00;98382.80;109526;1251;59971;-76
2024/04/26 03:20:10;;;;;;;54.50;40.60;;;;;;;0.42;100.00;98386.95;109551;1251;59840;-76
2024/04/26 03:22:36;;;;;;;55.00;42.60;;;;;;;0.43;100.00;98386.95;109528;1251;59817;-75
2024/04/26 03:25:03;;;;;;;56.90;42.30;;;;;;;0.43;100.00;98393.92;109514;1251;59839;-77
2024/04/26 03:27:30;;;;;;;66.70;48.10;;;;;;;0.43;100.00;98395.33;109602;1251;59872;-76
2024/04/26 03:29:56;;;;;;;68.80;50.20;;;;;;;0.49;100.00;98394.77;109567;1254;59927;-77
2024/04/26 03:32:22;;;;;;;57.90;46.00;;;;;;;0.51;100.00;98393.45;109554;1251;59851;-76
2024/04/26 03:34:49;;;;;;;72.00;50.90;;;;;;;0.53;100.00;98391.80;109295;1257;60154;-76
2024/04/26 03:37:15;;;;;;;63.20;47.30;;;;;;;0.61;100.00;98394.86;109559;1251;59810;-76
2024/04/26 03:39:41;;;;;;;70.00;50.00;;;;;;;0.67;100.00;98398.14;109497;1251;59897;-75
2024/04/26 03:42:08;;;;;;;69.00;48.50;;;;;;;0.73;100.00;98398.80;109603;1251;60156;-76
2024/04/26 03:44:34;;;;;;;69.70;51.20;;;;;;;0.77;100.00;98401.27;109541;1251;59808;-76
2024/04/26 03:47:00;;;;;;;71.80;52.10;;;;;;;0.78;100.00;98399.45;109508;1250;59762;-76
2024/04/26 03:49:27;;;;;;;69.80;51.40;;;;;;;0.81;100.00;98400.23;109497;1251;60054;-76
2024/04/26 03:51:53;;;;;;;73.80;54.10;;;;;;;0.85;100.00;98399.90;109544;1251;59806;-76
2024/04/26 03:54:19;;;;;;;74.10;57.10;;;;;;;0.95;100.00;98399.17;109553;1251;59875;-76
2024/04/26 03:56:46;;;;;;;66.60;53.20;;;;;;;1.44;100.00;98399.05;109555;1250;60129;-77
2024/04/26 03:59:12;;;;;;;61.00;49.70;;;;;;;2.17;100.00;98398.84;109524;1251;60052;-77
2024/04/26 04:01:39;;;;;;;59.20;48.50;;;;;;;2.85;100.00;98394.44;109584;1251;59717;-77
2024/04/26 04:04:05;;;;;;;52.70;45.70;;;;;;;3.45;100.00;98391.16;109467;1251;60258;-76
2024/04/26 04:06:32;;;;;;;47.50;41.40;;;;;;;4.07;100.00;98394.64;109544;1251;60197;-76
2024/04/26 04:08:58;;;;;;;44.70;37.90;;;;;;;4.60;100.00;98394.52;109568;1251;59840;-76
2024/04/26 04:11:24;;;;;;;44.00;37.50;;;;;;;5.19;100.00;98396.31;109579;1251;59707;-76
2024/04/26 04:13:51;;;;;;;35.50;31.70;;;;;;;5.75;100.00;98392.16;109264;1251;60258;-76
2024/04/26 04:16:17;;;;;;;35.60;31.90;;;;;;;6.27;100.00;98392.15;109596;1251;59874;-77
2024/04/26 04:18:44;;;;;;;32.60;28.80;;;;;;;6.72;100.00;98388.98;109533;1251;59720;-77
2024/04/26 04:21:10;;;;;;;32.80;29.30;;;;;;;7.23;100.00;98387.35;109556;1251;60104;-77
2024/04/26 04:23:36;;;;;;;31.30;27.70;;;;;;;7.77;100.00;98388.17;109547;1251;59828;-77
2024/04/26 04:26:03;;;;;;;30.10;26.90;;;;;;;8.21;100.00;98386.64;109557;1251;59793;-76
2024/04/26 04:28:29;;;;;;;29.90;27.00;;;;;;;8.58;100.00;98387.17;109523;1251;59961;-77
2024/04/26 04:30:55;;;;;;;30.50;27.30;;;;;;;8.85;100.00;98391.22;109581;1251;59871;-77
2024/04/26 04:33:21;;;;;;;29.40;26.50;;;;;;;9.18;100.00;98387.13;109591;1250;60151;-77
2024/04/26 04:35:48;;;;;;;27.60;24.70;;;;;;;9.52;100.00;98387.33;109563;1251;60543;-76
2024/04/26 04:38:14;;;;;;;27.50;24.60;;;;;;;9.68;100.00;98390.39;109535;1251;59793;-76
2024/04/26 04:40:41;;;;;;;28.70;25.80;;;;;;;9.95;100.00;98389.34;109604;1251;59983;-76
2024/04/26 04:43:09;;;;;;;25.90;23.10;;;;;;;10.30;98.79;98388.14;109535;1251;59839;-77
2024/04/26 04:45:35;;;;;;;25.40;22.80;;;;;;;10.44;96.07;98388.57;109543;1255;59835;-76
2024/04/26 04:48:01;;;;;;;25.20;22.50;;;;;;;10.53;94.72;98390.88;109561;1251;59849;-76
2024/04/26 04:50:28;;;;;;;24.20;21.80;;;;;;;10.77;93.46;98394.31;109539;1251;59851;-76
2024/04/26 04:52:54;;;;;;;24.50;22.10;;;;;;;11.01;90.90;98394.45;109504;1251;59846;-77
2024/04/26 04:55:20;;;;;;;23.60;21.10;;;;;;;11.20;89.77;98396.53;109513;1251;59904;-77
2024/04/26 04:57:47;;;;;;;21.70;19.60;;;;;;;11.42;88.84;98397.27;109554;1251;59864;-76
2024/04/26 05:00:14;;;;;;;22.10;19.90;;;;;;;11.60;86.91;98397.36;109501;1251;60078;-76
2024/04/26 05:02:41;;;;;;;19.50;17.50;;;;;;;11.77;85.53;98401.17;109546;1251;59877;-76
2024/04/26 05:05:07;;;;;;;19.90;17.90;;;;;;;11.97;84.31;98403.27;109520;1251;59981;-77
2024/04/26 05:07:34;;;;;;;19.90;17.70;;;;;;;12.14;82.86;98404.20;109532;1251;66736;-76
2024/04/26 05:10:00;;;;;;;18.50;16.80;;;;;;;12.36;82.65;98401.45;109567;1251;60003;-77
2024/04/26 05:12:27;;;;;;;21.80;16.90;;;;;;;12.59;81.69;98403.15;109570;1251;59843;-77
2024/04/26 05:14:53;;;;;;;18.60;16.90;;;;;;;12.76;80.47;98401.15;109520;1251;59775;-76
2024/04/26 05:17:19;;;;;;;18.50;16.10;;;;;;;12.98;80.09;98406.41;109552;1251;59970;-76
2024/04/26 05:19:46;;;;;;;17.30;15.10;;;;;;;13.20;78.98;98410.41;109527;1256;59836;-76
2024/04/26 05:22:12;;;;;;;15.40;13.70;;;;;;;13.47;78.27;98411.48;109548;1251;60359;-76
2024/04/26 05:24:38;;;;;;;16.50;14.90;;;;;;;13.67;77.05;98411.46;109507;1251;60174;-76
2024/04/26 05:27:08;;;;;;;16.40;14.80;;;;;;;13.82;76.19;98414.09;109609;1251;59713;-76
2024/04/26 05:29:35;;;;;;;15.40;13.90;;;;;;;14.04;75.26;98416.86;109381;1251;60451;-76
2024/04/26 05:32:01;;;;;;;15.40;12.60;;;;;;;14.23;74.70;98415.54;109494;1254;66824;-76
2024/04/26 05:34:27;;;;;;;14.80;13.30;;;;;;;14.35;73.98;98413.88;109268;1251;59887;-76
2024/04/26 05:36:54;;;;;;;17.90;13.30;;;;;;;14.53;73.29;98416.76;109537;1251;60759;-77
2024/04/26 05:39:20;;;;;;;14.90;11.80;;;;;;;14.65;72.66;98420.59;109532;1251;59840;-76
2024/04/26 05:41:46;;;;;;;12.40;11.00;;;;;;;14.82;72.12;98418.30;109516;1251;59835;-76
2024/04/26 05:44:13;;;;;;;13.00;11.70;;;;;;;14.93;71.48;98418.21;109515;1251;59955;-76
2024/04/26 05:46:39;;;;;;;15.00;10.50;;;;;;;15.00;70.94;98417.51;109556;1251;59968;-76
2024/04/26 05:49:05;;;;;;;12.80;11.50;;;;;;;15.04;70.08;98414.98;109511;1251;59905;-76
2024/04/26 05:51:32;;;;;;;11.90;10.50;;;;;;;15.07;69.96;98419.89;109519;1251;60077;-76
2024/04/26 05:54:02;;;;;;;11.80;10.50;;;;;;;15.15;69.70;98425.81;109604;1253;59793;-76
2024/04/26 05:56:28;;;;;;;;;;;;;;;15.25;69.09;98429.98;109557;1251;66841;-76
2024/04/26 05:58:54;;;;;;;12.40;10.60;;;;;;;15.29;68.93;98432.33;109563;1251;59929;-76
2024/04/26 06:01:20;;;;;;;12.70;11.30;;;;;;;15.35;68.55;98433.38;109203;1251;59915;-77
2024/04/26 06:03:47;;;;;;;12.50;10.50;;;;;;;15.35;68.00;98432.48;109489;1251;59866;-76
2024/04/26 06:06:14;;;;;;;19.60;11.50;;;;;;;15.32;67.15;98433.59;109549;1251;59880;-76
2024/04/26 06:08:40;;;;;;;12.30;10.30;;;;;;;15.23;67.24;98434.88;109516;1256;59796;-75
2024/04/26 06:11:07;;;;;;;11.80;10.40;;;;;;;15.17;67.15;98436.45;109538;1251;59835;-76
2024/04/26 06:13:33;;;;;;;12.10;10.50;;;;;;;15.05;66.22;98437.21;109551;1254;59780;-76
2024/04/26 06:16:03;;;;;;;11.50;10.40;;;;;;;14.81;66.40;98439.89;109526;1251;60003;-76
2024/04/26 06:18:29;;;;;;;;;;;;;;;14.81;67.16;98442.57;109566;1251;60652;-76
2024/04/26 06:20:56;;;;;;;11.10;9.60;;;;;;;14.86;66.99;98444.05;109547;1251;59900;-75
2024/04/26 06:23:22;;;;;;;13.00;9.80;;;;;;;14.88;66.75;98441.20;109550;1251;59955;-76
2024/04/26 06:25:48;;;;;;;11.80;9.70;;;;;;;14.92;67.12;98442.64;109542;1251;59906;-76
2024/04/26 06:28:15;;;;;;;11.10;9.80;;;;;;;15.01;67.38;98443.52;109528;1251;60151;-76
2024/04/26 06:30:41;;;;;;;12.10;10.90;;;;;;;15.05;67.08;98451.23;109595;1251;59810;-76
2024/04/26 06:33:07;;;;;;;12.30;10.20;;;;;;;15.09;67.28;98447.10;109525;1251;60020;-77
2024/04/26 06:35:34;;;;;;;10.30;9.30;;;;;;;15.17;67.40;98447.96;109565;1251;59871;-77
2024/04/26 06:38:00;;;;;;;10.00;9.00;;;;;;;15.27;66.99;98451.13;109527;1254;60779;-77
2024/04/26 06:40:27;;;;;;;11.50;8.90;;;;;;;15.27;66.65;98450.78;109597;1251;59704;-77
2024/04/26 06:42:53;;;;;;;8.40;7.50;;;;;;;15.23;66.88;98450.23;109513;1251;60220;-77
2024/04/26 06:45:19;;;;;;;10.10;8.40;;;;;;;15.18;67.31;98450.55;109552;1251;59733;-77
2024/04/26 06:47:45;;;;;;;9.90;8.60;;;;;;;15.11;66.66;98452.23;109559;1251;59852;-77
2024/04/26 06:50:12;;;;;;;9.20;7.40;;;;;;;14.99;66.34;98453.05;109507;1251;59809;-77
2024/04/26 06:52:40;;;;;;;8.70;7.60;;;;;;;14.78;65.86;98455.36;109505;1251;59994;-77
2024/04/26 06:55:06;;;;;;;11.00;8.30;;;;;;;14.47;65.87;98460.02;109571;1251;60050;-76
2024/04/26 06:57:34;;;;;;;9.10;7.90;;;;;;;14.12;66.87;98462.21;109531;1254;59752;-78
2024/04/26 07:00:01;;;;;;;8.90;8.00;;;;;;;13.81;67.79;98461.58;109538;1251;59812;-77
2024/04/26 07:02:27;;;;;;;9.00;6.70;;;;;;;13.67;68.86;98463.92;109512;1251;64030;-76
2024/04/26 07:04:54;;;;;;;7.60;6.90;;;;;;;13.56;69.33;98464.15;109522;1251;59804;-76
2024/04/26 07:07:20;;;;;;;7.90;7.00;;;;;;;13.43;69.27;98467.29;109511;1251;59877;-77
2024/04/26 07:09:47;;;;;;;9.20;6.30;;;;;;;13.27;69.57;98466.36;109517;1251;59911;-76
2024/04/26 07:12:13;;;;;;;7.10;6.40;;;;;;;13.20;70.52;98463.74;109574;1251;59872;-77
2024/04/26 07:14:39;;;;;;;7.50;6.70;;;;;;;13.20;70.81;98465.12;109525;1251;59846;-76
2024/04/26 07:17:05;;;;;;;8.00;6.90;;;;;;;13.16;70.89;98463.14;109211;1251;59823;-76
2024/04/26 07:19:36;;;;;;;8.60;6.80;;;;;;;13.10;70.89;98461.49;109564;1251;60004;-77
2024/04/26 07:22:02;;;;;;;6.20;5.60;;;;;;;13.09;71.17;98464.98;109561;1251;65716;-76
2024/04/26 07:24:30;;;;;;;6.60;5.80;;;;;;;13.12;71.52;98466.52;109593;1251;59744;-77
2024/04/26 07:26:56;;;;;;;5.60;5.10;;;;;;;13.21;71.92;98463.98;109516;1251;64084;-77
2024/04/26 07:29:24;;;;;;;5.40;4.00;;;;;;;13.25;70.91;98461.86;109501;1251;60052;-76
2024/04/26 07:31:50;;;;;;;5.00;4.00;;;;;;;13.22;69.33;98463.71;109510;1251;60107;-76
2024/04/26 07:34:17;;;;;;;5.00;4.20;;;;;;;13.10;68.77;98462.81;109540;1251;60060;-77
2024/04/26 07:36:44;;;;;;;5.30;4.40;;;;;;;13.10;69.52;98462.80;109517;1251;59931;-77
2024/04/26 07:39:11;;;;;;;4.20;3.80;;;;;;;13.14;69.64;98465.63;109309;1251;62832;-76
2024/04/26 07:41:37;;;;;;;4.20;2.90;;;;;;;13.23;70.18;98466.27;109537;1251;60106;-77
2024/04/26 07:44:03;;;;;;;3.50;3.20;;;;;;;13.16;69.61;98463.30;109582;1251;59883;-77
2024/04/26 07:46:29;;;;;;;5.60;3.50;;;;;;;13.16;69.64;98462.07;109197;1251;60041;-77
2024/04/26 07:48:58;;;;;;;3.50;3.20;;;;;;;13.09;69.06;98466.62;109538;1251;60025;-77
2024/04/26 07:51:24;;;;;;;3.20;2.90;;;;;;;12.97;68.80;98465.36;109549;1251;62858;-76
2024/04/26 07:53:51;;;;;;;4.30;2.80;;;;;;;12.75;67.64;98463.65;109566;1251;59793;-76
2024/04/26 07:56:17;;;;;;;4.10;3.80;;;;;;;12.47;66.98;98464.23;109520;1251;59892;-77
2024/04/26 07:58:43;;;;;;;3.80;3.50;;;;;;;12.47;67.39;98467.73;109516;1251;59792;-76
2024/04/26 08:01:11;;;;;;;5.60;3.80;;;;;;;12.72;67.73;98467.13;109564;1251;59729;-76
2024/04/26 08:03:37;;;;;;;6.50;4.90;;;;;;;12.99;67.57;98462.11;109495;1251;64062;-76
2024/04/26 08:06:04;;;;;;;3.30;2.90;;;;;;;13.29;67.34;98455.29;109497;1251;59929;-75
2024/04/26 08:08:30;;;;;;;3.80;2.60;;;;;;;13.54;67.05;98455.94;109613;1251;59733;-75
2024/04/26 08:10:56;;;;;;;3.20;2.90;;;;;;;13.85;67.30;98456.96;109570;1251;59874;-75
2024/04/26 08:13:23;;;;;;;3.80;3.00;;;;;;;14.10;65.75;98460.80;109565;1251;59970;-75
2024/04/26 08:15:51;;;;;;;2.60;2.40;;;;;;;14.29;65.57;98460.69;109536;1251;59812;-76
2024/04/26 08:18:17;;;;;;;2.70;2.50;;;;;;;14.49;65.13;98458.36;109577;1251;59898;-75
2024/04/26 08:20:44;;;;;;;2.90;2.70;;;;;;;14.71;65.58;98454.43;109517;1251;59841;-75
2024/04/26 08:23:10;;;;;;;3.70;2.40;;;;;;;14.90;65.92;98452.45;109535;1250;66530;-76
2024/04/26 08:25:36;;;;;;;2.60;2.40;;;;;;;15.08;65.47;98451.68;109561;1251;59959;-76
2024/04/26 08:28:03;;;;;;;3.40;2.40;;;;;;;15.18;64.65;98451.23;109525;1251;59939;-76
2024/04/26 08:30:31;;;;;;;3.30;2.70;;;;;;;15.19;64.18;98452.04;109537;1251;60161;-77
2024/04/26 08:32:57;;;;;;;2.90;2.70;;;;;;;15.25;63.67;98450.77;109528;1251;59673;-76
2024/04/26 08:35:24;;;;;;;3.20;2.40;;;;;;;15.30;62.36;98447.10;109612;1251;59841;-76
2024/04/26 08:37:50;;;;;;;2.60;2.40;;;;;;;15.32;61.90;98446.15;109552;1250;59834;-75
2024/04/26 08:40:16;;;;;;;2.70;2.50;;;;;;;15.48;61.72;98444.61;109516;1251;60718;-75
2024/04/26 08:42:45;;;;;;;2.80;2.60;;;;;;;15.63;61.39;98442.52;109575;1251;60110;-75
2024/04/26 08:45:11;;;;;;;2.40;2.20;;;;;;;15.81;61.40;98442.33;109553;1251;59950;-75
2024/04/26 08:47:38;;;;;;;3.00;2.20;;;;;;;15.95;59.49;98437.77;109538;1251;59860;-75
2024/04/26 08:50:04;;;;;;;3.30;3.00;;;;;;;16.18;59.75;98440.02;109528;1251;60236;-74
2024/04/26 08:52:31;;;;;;;2.60;2.10;;;;;;;16.35;59.19;98442.25;109585;1251;62860;-75
2024/04/26 08:54:57;;;;;;;2.30;2.20;;;;;;;16.37;59.37;98443.12;109516;1251;59787;-75
2024/04/26 08:57:24;;;;;;;2.70;2.50;;;;;;;16.31;58.85;98447.15;109341;1251;60309;-75
2024/04/26 09:00:05;;;;;;;2.60;2.40;;;;;;;16.20;58.20;98453.23;109587;1251;59914;-74
2024/04/26 09:02:34;;;;;;;2.90;2.70;;;;;;;16.07;58.06;98452.22;109575;1251;59936;-75
2024/04/26 09:05:02;;;;;;;3.10;2.10;;;;;;;15.89;57.87;98449.80;109509;1251;63896;-77
2024/04/26 09:07:28;;;;;;;2.70;2.10;;;;;;;15.67;57.63;98453.35;109565;1251;59751;-76
2024/04/26 09:09:55;;;;;;;2.40;2.20;;;;;;;15.42;57.76;98453.62;109626;1251;60138;-75
2024/04/26 09:12:22;;;;;;;2.40;2.20;;;;;;;15.22;58.16;98455.15;109352;1251;65311;-74
2024/04/26 09:14:48;;;;;;;2.60;2.30;;;;;;;15.06;58.82;98454.86;109511;1251;60292;-75
2024/04/26 09:17:14;;;;;;;2.30;2.10;;;;;;;14.95;58.50;98458.81;109565;1251;59787;-75
2024/04/26 09:19:42;;;;;;;2.50;2.10;;;;;;;14.83;58.37;98456.30;109517;1251;59878;-75
2024/04/26 09:22:08;;;;;;;2.40;2.20;;;;;;;14.82;58.56;98456.58;109461;1251;59791;-75
2024/04/26 09:24:35;;;;;;;2.30;2.10;;;;;;;14.89;59.01;98455.04;109143;1253;66555;-75
2024/04/26 09:27:03;;;;;;;2.40;2.00;;;;;;;14.97;58.29;98453.62;109434;1253;59967;-74
2024/04/26 09:29:29;;;;;;;2.20;2.00;;;;;;;15.01;58.23;98453.75;109427;1253;64092;-75
2024/04/26 09:32:03;;;;;;;3.50;2.20;;;;;;;15.23;59.10;98450.89;109429;1252;59782;-76
2024/04/26 09:34:33;;;;;;;4.70;2.50;;;;;;;15.76;59.63;98448.20;109497;1252;59732;-75
2024/04/26 09:36:59;;;;;;;;;;;;;;;16.31;58.89;98445.84;109455;1254;65666;-75
2024/04/26 09:39:30;;;;;;;2.90;2.60;;;;;;;16.63;56.71;98444.33;109472;1252;70028;-75
2024/04/26 09:41:58;;;;;;;3.00;2.30;;;;;;;16.82;56.67;98443.07;109440;1251;62811;-75
2024/04/26 09:44:24;;;;;;;2.30;2.10;;;;;;;16.71;53.17;98444.40;109425;1252;60264;-75
2024/04/26 09:46:52;;;;;;;2.60;2.40;;;;;;;16.31;52.79;98443.80;109439;1254;60386;-74
2024/04/26 09:49:18;;;;;;;3.20;2.00;;;;;;;16.12;52.86;98441.31;109476;1252;65613;-75
2024/04/26 09:51:46;;;;;;;3.30;2.10;;;;;;;16.15;52.91;98445.32;109444;1253;59813;-75
2024/04/26 09:54:15;;;;;;;3.60;2.10;;;;;;;16.24;52.62;98445.54;109418;1252;64173;-75
2024/04/26 09:56:41;;;;;;;2.60;2.40;;;;;;;16.46;53.06;98444.35;109424;1252;60085;-75
2024/04/26 09:59:08;;;;;;;3.30;2.20;;;;;;;16.64;52.48;98445.83;109452;1252;59691;-75
2024/04/26 10:01:37;;;;;;;2.10;2.00;;;;;;;16.78;52.87;98442.63;109453;1252;66574;-75
2024/04/26 10:04:05;;;;;;;2.70;2.00;;;;;;;16.95;53.26;98440.34;109434;1252;60016;-75
2024/04/26 10:06:41;;;;;;;1.80;1.70;;;;;;;17.14;52.55;98436.48;109421;1252;64469;-75
2024/04/26 10:09:09;;;;;;;2.20;1.90;;;;;;;17.21;51.48;98430.46;109463;1252;59762;-75
2024/04/26 10:11:52;;;;;;;4.10;2.40;;;;;;;17.42;50.92;98427.80;109414;1253;60141;-75
2024/04/26 10:14:30;;;;;;;2.50;2.30;;;;;;;17.69;50.97;98425.14;109441;1252;65693;-75
2024/04/26 10:17:10;;;;;;;2.20;2.00;;;;;;;17.73;51.13;98424.00;109337;1253;60165;-74
2024/04/26 10:19:41;;;;;;;2.40;2.20;;;;;;;17.46;50.57;98422.17;109306;1253;64093;-76
2024/04/26 10:22:09;;;;;;;2.90;2.50;;;;;;;17.43;51.15;98420.89;109393;1252;59760;-75
2024/04/26 10:24:43;;;;;;;2.80;2.20;;;;;;;17.49;50.69;98420.60;109468;1252;60165;-75
2024/04/26 10:27:10;;;;;;;1.80;1.70;;;;;;;17.37;50.70;98420.10;109303;1253;67228;-76
2024/04/26 10:29:38;;;;;;;3.00;2.40;;;;;;;17.22;51.74;98422.91;109428;1251;60191;-75
2024/04/26 10:32:05;;;;;;;2.40;2.20;;;;;;;16.99;51.74;98420.86;109452;1253;62888;-75
2024/04/26 10:34:33;;;;;;;2.50;2.10;;;;;;;16.74;52.12;98420.52;109435;1252;60006;-75
2024/04/26 10:37:00;;;;;;;1.80;1.70;;;;;;;16.60;51.76;98417.52;109341;1252;59748;-75
2024/04/26 10:39:27;;;;;;;2.00;1.90;;;;;;;16.53;51.36;98414.68;109415;1252;65196;-76
2024/04/26 10:41:56;;;;;;;1.90;1.80;;;;;;;16.46;50.87;98414.96;109447;1252;60247;-74
2024/04/26 10:44:25;;;;;;;2.00;1.90;;;;;;;16.37;50.94;98411.98;109393;1252;63117;-75
2024/04/26 10:46:59;;;;;;;2.10;1.90;;;;;;;16.36;51.10;98409.38;109433;1252;59748;-76
2024/04/26 10:49:26;;;;;;;2.90;2.10;;;;;;;16.42;51.24;98408.91;109438;1252;60896;-75
2024/04/26 10:52:00;;;;;;;2.50;1.90;;;;;;;16.48;51.00;98409.43;109445;1253;65420;-75
2024/04/26 10:54:27;;;;;;;2.10;1.90;;;;;;;16.48;51.28;98407.98;109482;1252;60011;-75
2024/04/26 10:56:53;;;;;;;2.10;1.90;;;;;;;16.52;51.31;98405.98;109427;1252;62875;-75
2024/04/26 10:59:25;;;;;;;2.10;1.90;;;;;;;16.54;51.08;98407.70;109445;1252;59849;-75
2024/04/26 11:02:02;;;;;;;2.20;2.00;;;;;;;16.56;51.13;98407.89;109448;1252;59738;-75
2024/04/26 11:04:33;;;;;;;3.30;2.30;;;;;;;16.55;51.52;98407.77;109321;1252;65307;-75
2024/04/26 11:07:17;;;;;;;2.90;2.40;;;;;;;16.59;50.80;98409.19;109450;1252;60291;-76
2024/04/26 11:09:48;;;;;;;3.10;2.40;;;;;;;16.54;50.25;98409.14;109421;1252;63776;-75
2024/04/26 11:12:16;;;;;;;3.60;3.30;;;;;;;16.64;50.74;98410.51;109451;1252;59743;-74
2024/04/26 11:14:42;;;;;;;4.50;3.80;;;;;;;17.02;51.07;98409.36;109321;1252;59748;-76
2024/04/26 11:17:09;;;;;;;2.40;2.20;;;;;;;17.51;50.23;98405.79;109002;1253;155208;-75